Wetterstation Rossbuehl

Zugriff auf die letzten 10 Werte 30 Werte 100 Werte 400 Werte

Datum_____UhrzeitWind
Mittel
Wind
min
Wind
Boe
Wind
BoeTag
Wind
Richtung
Temp1
Feuchte Station Power
type
BatterieInter
vall
SMS
JJJJ-MM-TT hh:mmkm/hmin SpitzePeak Grad °C % ID Ex.oBat Volt min St.
2020-04-10 10:42 6 0 14 68 16.1 0 2 5.76 1
2020-04-10 10:27 3 0 6 58 15 0 2 5.75 1
2020-04-10 10:12 3 0 4 59 15.6 0 2 5.77 1
2020-04-10 09:57 0 0 0 0 15.6 8 2 5.77 1
2020-04-10 09:42 3 3 4 331 15.1 2 2 5.77 1
2020-04-10 09:27 1 0 4 72 15.1 2 2 5.77 1
2020-04-10 09:12 0 0 0 83 14.4 0 2 5.76 1
2020-04-10 08:57 2 0 5 83 14.2 4 2 5.77 1
2020-04-10 08:42 5 2 10 75 13.7 0 2 5.80 1
2020-04-10 08:27 7 7 8 86 13.1 6 2 5.78 1
2020-04-10 08:12 6 4 7 81 12.9 4 2 5.80 1
2020-04-10 07:57 6 0 12 77 13.1 4 2 5.78 1
2020-04-10 07:42 0 0 0 85 13 12 2 5.79 1
2020-04-10 07:27 2 2 4 74 12.9 2 2 5.77 1
2020-04-10 07:12 4 4 4 85 12.7 8 2 5.77 1
2020-04-10 06:57 5 4 6 85 12.2 4 2 5.80 1
2020-04-10 06:42 4 1 7 87 12.2 0 2 5.80 1
2020-04-10 06:27 5 3 6 87 12.1 2 2 5.79 1
2020-04-10 06:12 9 7 11 77 12.2 15 2 5.77 1
2020-04-10 05:57 8 6 11 79 12.1 6 2 5.80 1